Time;durP1;ratioP1;P1;durP2;ratioP2;P2;SDS_P1;SDS_P2;PMS_P1;PMS_P2;Temp;Humidity;BMP_temperature;BMP_pressure;BME280_temperature;BME280_humidity;BME280_pressure;Samples;Min_cycle;Max_cycle;Signal;HPM_P1;HPM_P2
2023/03/02 00:00:26;;;;;;;5.53;3.80;;;;;;;;;;5033613;28;20128;-68
2023/03/02 00:02:52;;;;;;;6.40;3.97;;;;;;;;;;5032935;28;20088;-66
2023/03/02 00:05:18;;;;;;;5.68;3.47;;;;;;;;;;5033064;28;20500;-68
2023/03/02 00:07:44;;;;;;;6.82;4.00;;;;;;;;;;5033216;28;20037;-66
2023/03/02 00:10:10;;;;;;;5.03;3.33;;;;;;;;;;5033321;28;20025;-67
2023/03/02 00:12:36;;;;;;;5.25;3.45;;;;;;;;;;5033671;28;20033;-72
2023/03/02 00:15:02;;;;;;;5.15;3.75;;;;;;;;;;5033125;28;20048;-72
2023/03/02 00:17:28;;;;;;;5.97;3.80;;;;;;;;;;5033341;28;20037;-69
2023/03/02 00:20:04;;;;;;;5.82;3.90;;;;;;;;;;5032231;28;20108;-71
2023/03/02 00:22:31;;;;;;;5.38;3.85;;;;;;;;;;5033025;28;20041;-71
2023/03/02 00:24:57;;;;;;;5.70;3.60;;;;;;;;;;5032928;28;20032;-66
2023/03/02 00:27:23;;;;;;;6.47;4.05;;;;;;;;;;5033065;28;20029;-65
2023/03/02 00:29:49;;;;;;;6.10;4.10;;;;;;;;;;5032733;28;20025;-70
2023/03/02 00:32:20;;;;;;;5.78;3.75;;;;;;;;;;5033036;28;20105;-70
2023/03/02 00:34:46;;;;;;;5.43;3.80;;;;;;;;;;5032362;28;20040;-71
2023/03/02 00:37:12;;;;;;;6.53;4.18;;;;;;;;;;5032931;28;20021;-70
2023/03/02 00:39:38;;;;;;;5.63;3.33;;;;;;;;;;5032676;28;20026;-68
2023/03/02 00:42:04;;;;;;;5.07;3.17;;;;;;;;;;5033007;28;20041;-70
2023/03/02 00:44:30;;;;;;;5.60;3.83;;;;;;;;;;5032180;28;20025;-63
2023/03/02 00:46:56;;;;;;;6.93;3.95;;;;;;;;;;5032450;28;20052;-71
2023/03/02 00:49:22;;;;;;;4.60;3.47;;;;;;;;;;5032455;28;20056;-69
2023/03/02 00:51:48;;;;;;;6.97;3.60;;;;;;;;;;5032343;28;20029;-69
2023/03/02 00:54:14;;;;;;;6.00;3.63;;;;;;;;;;5032656;28;20024;-71
2023/03/02 00:56:40;;;;;;;5.82;3.97;;;;;;;;;;5032342;28;20104;-66
2023/03/02 00:59:09;;;;;;;5.32;3.80;;;;;;;;;;5032563;28;20032;-70
2023/03/02 01:01:36;;;;;;;5.38;3.42;;;;;;;;;;5032583;28;20125;-66
2023/03/02 01:04:02;;;;;;;5.18;3.50;;;;;;;;;;5032168;28;20022;-67
2023/03/02 01:06:28;;;;;;;5.70;3.70;;;;;;;;;;5032509;28;20032;-67
2023/03/02 01:08:54;;;;;;;5.32;3.83;;;;;;;;;;5031975;28;20036;-64
2023/03/02 01:11:21;;;;;;;5.13;3.53;;;;;;;;;;5032238;28;20390;-68
2023/03/02 01:13:48;;;;;;;4.80;3.65;;;;;;;;;;5031689;28;20025;-64
2023/03/02 01:16:14;;;;;;;6.22;3.95;;;;;;;;;;5031664;28;20036;-68
2023/03/02 01:18:40;;;;;;;6.20;3.72;;;;;;;;;;5031901;28;20025;-65
2023/03/02 01:21:14;;;;;;;4.68;3.30;;;;;;;;;;5032279;28;20068;-68
2023/03/02 01:23:40;;;;;;;7.32;3.95;;;;;;;;;;5031872;28;20079;-63
2023/03/02 01:26:06;;;;;;;6.13;3.80;;;;;;;;;;5032274;28;20104;-68
2023/03/02 01:28:32;;;;;;;5.10;3.20;;;;;;;;;;5031955;28;20025;-69
2023/03/02 01:31:01;;;;;;;5.70;3.83;;;;;;;;;;5031041;28;20148;-64
2023/03/02 01:33:27;;;;;;;5.07;3.42;;;;;;;;;;5031677;28;20088;-65
2023/03/02 01:35:53;;;;;;;5.57;3.85;;;;;;;;;;5031685;28;20029;-68
2023/03/02 01:38:19;;;;;;;5.50;3.50;;;;;;;;;;5031685;28;20032;-63
2023/03/02 01:40:45;;;;;;;5.13;3.88;;;;;;;;;;5031229;28;20432;-64
2023/03/02 01:43:15;;;;;;;4.35;3.58;;;;;;;;;;5031602;28;20068;-67
2023/03/02 01:45:46;;;;;;;7.55;4.07;;;;;;;;;;5030882;28;20104;-64
2023/03/02 01:48:13;;;;;;;5.00;3.97;;;;;;;;;;5031760;28;20029;-66
2023/03/02 01:50:39;;;;;;;5.47;3.83;;;;;;;;;;5030781;28;20105;-63
2023/03/02 01:53:06;;;;;;;4.53;3.53;;;;;;;;;;5031540;28;20053;-68
2023/03/02 01:55:33;;;;;;;5.85;3.85;;;;;;;;;;5031466;28;20040;-62
2023/03/02 01:58:00;;;;;;;5.97;3.58;;;;;;;;;;5031066;28;20026;-64
2023/03/02 02:00:28;;;;;;;5.35;3.72;;;;;;;;;;5030888;28;20429;-66
2023/03/02 02:03:07;;;;;;;5.63;4.00;;;;;;;;;;5031009;28;20048;-62
2023/03/02 02:05:33;;;;;;;5.93;3.47;;;;;;;;;;5031282;28;20025;-66
2023/03/02 02:07:59;;;;;;;6.18;3.70;;;;;;;;;;5031086;28;20115;-64
2023/03/02 02:10:25;;;;;;;5.22;3.50;;;;;;;;;;5031142;28;20478;-67
2023/03/02 02:12:51;;;;;;;5.43;3.67;;;;;;;;;;5030423;28;20136;-64
2023/03/02 02:15:17;;;;;;;6.47;3.40;;;;;;;;;;5031149;28;20105;-64
2023/03/02 02:17:43;;;;;;;5.10;3.25;;;;;;;;;;5030944;28;20482;-64
2023/03/02 02:20:19;;;;;;;5.15;3.45;;;;;;;;;;5031125;28;20022;-65
2023/03/02 02:22:54;;;;;;;4.53;3.42;;;;;;;;;;5030895;28;20095;-67
2023/03/02 02:25:20;;;;;;;5.53;3.60;;;;;;;;;;5031083;28;20030;-67
2023/03/02 02:27:46;;;;;;;5.53;3.38;;;;;;;;;;5030363;28;20033;-68
2023/03/02 02:30:12;;;;;;;7.35;4.22;;;;;;;;;;5030678;28;20018;-65
2023/03/02 02:32:40;;;;;;;5.85;4.13;;;;;;;;;;5031449;28;20022;-63
2023/03/02 02:35:06;;;;;;;4.35;3.45;;;;;;;;;;5031473;28;20025;-68
2023/03/02 02:37:41;;;;;;;5.03;3.50;;;;;;;;;;5030685;28;20411;-67
2023/03/02 02:40:12;;;;;;;5.53;4.00;;;;;;;;;;5031349;28;20033;-67
2023/03/02 02:42:40;;;;;;;5.75;3.47;;;;;;;;;;5031191;28;20072;-67
2023/03/02 02:45:10;;;;;;;4.50;3.20;;;;;;;;;;5030709;28;20025;-69
2023/03/02 02:47:36;;;;;;;5.75;3.53;;;;;;;;;;5030828;28;20029;-65
2023/03/02 02:50:03;;;;;;;5.35;3.50;;;;;;;;;;5030437;28;20045;-66
2023/03/02 02:52:29;;;;;;;5.68;3.80;;;;;;;;;;5030941;28;20029;-65
2023/03/02 02:54:56;;;;;;;5.00;3.85;;;;;;;;;;5030197;28;20096;-67
2023/03/02 02:57:24;;;;;;;4.43;3.33;;;;;;;;;;5030729;28;20508;-68
2023/03/02 02:59:51;;;;;;;5.00;3.45;;;;;;;;;;5030496;28;20040;-68
2023/03/02 03:02:20;;;;;;;4.07;2.88;;;;;;;;;;5031122;28;20107;-66
2023/03/02 03:04:46;;;;;;;4.78;3.38;;;;;;;;;;5034364;28;20049;-67
2023/03/02 03:07:23;;;;;;;5.60;3.33;;;;;;;;;;5034736;28;20030;-68
2023/03/02 03:09:54;;;;;;;4.72;3.13;;;;;;;;;;5033829;28;20040;-67
2023/03/02 03:12:21;;;;;;;5.00;3.78;;;;;;;;;;5034468;28;20079;-68
2023/03/02 03:14:47;;;;;;;3.83;2.92;;;;;;;;;;5034230;28;20032;-68
2023/03/02 03:17:13;;;;;;;4.60;3.00;;;;;;;;;;5034455;28;20065;-65
2023/03/02 03:19:41;;;;;;;4.70;3.13;;;;;;;;;;5034029;28;20049;-65
2023/03/02 03:22:07;;;;;;;4.25;2.92;;;;;;;;;;5034557;28;20116;-66
2023/03/02 03:24:33;;;;;;;4.78;3.25;;;;;;;;;;5033978;28;20017;-68
2023/03/02 03:27:00;;;;;;;4.93;3.30;;;;;;;;;;5034046;28;20084;-67
2023/03/02 03:29:30;;;;;;;4.85;3.55;;;;;;;;;;5034056;28;20501;-67
2023/03/02 03:31:57;;;;;;;6.47;3.40;;;;;;;;;;5034012;28;20429;-68
2023/03/02 03:34:23;;;;;;;7.18;3.33;;;;;;;;;;5034040;28;20018;-67
2023/03/02 03:36:49;;;;;;;4.82;3.42;;;;;;;;;;5033523;28;20108;-68
2023/03/02 03:39:16;;;;;;;5.38;3.53;;;;;;;;;;5034180;28;20026;-67
2023/03/02 03:41:42;;;;;;;4.03;3.50;;;;;;;;;;5033612;28;20033;-66
2023/03/02 03:44:09;;;;;;;4.53;3.20;;;;;;;;;;5034215;28;20543;-68
2023/03/02 03:46:35;;;;;;;5.88;3.33;;;;;;;;;;5034305;28;20033;-68
2023/03/02 03:49:01;;;;;;;6.75;4.03;;;;;;;;;;5032309;28;20041;-66
2023/03/02 03:51:27;;;;;;;3.83;2.95;;;;;;;;;;5033264;28;20036;-67
2023/03/02 03:53:59;;;;;;;4.25;3.20;;;;;;;;;;5033548;28;20470;-67
2023/03/02 03:56:26;;;;;;;4.63;3.05;;;;;;;;;;5033673;28;20034;-68
2023/03/02 03:59:04;;;;;;;4.90;3.20;;;;;;;;;;5033272;28;20021;-68
2023/03/02 04:01:33;;;;;;;3.88;2.75;;;;;;;;;;5033351;28;20095;-67
2023/03/02 04:03:59;;;;;;;4.20;3.50;;;;;;;;;;5033078;28;20356;-67
2023/03/02 04:06:25;;;;;;;4.10;2.95;;;;;;;;;;5033345;28;20034;-67
2023/03/02 04:08:51;;;;;;;6.63;3.15;;;;;;;;;;5033094;28;20033;-66
2023/03/02 04:11:17;;;;;;;5.07;3.17;;;;;;;;;;5033441;28;20025;-65
2023/03/02 04:13:44;;;;;;;4.85;3.40;;;;;;;;;;5032159;28;20072;-67
2023/03/02 04:16:10;;;;;;;4.57;3.00;;;;;;;;;;5032081;28;20021;-65
2023/03/02 04:18:36;;;;;;;4.65;3.08;;;;;;;;;;5033588;28;20488;-67
2023/03/02 04:21:02;;;;;;;3.63;3.10;;;;;;;;;;5032986;28;20071;-67
2023/03/02 04:23:28;;;;;;;4.97;3.47;;;;;;;;;;5032623;28;20038;-66
2023/03/02 04:25:54;;;;;;;4.85;3.20;;;;;;;;;;5032091;28;20093;-65
2023/03/02 04:28:20;;;;;;;4.97;3.20;;;;;;;;;;5033156;28;20041;-66
2023/03/02 04:30:46;;;;;;;3.67;2.85;;;;;;;;;;5032886;28;20030;-67
2023/03/02 04:33:12;;;;;;;4.63;3.13;;;;;;;;;;5033028;28;20026;-67
2023/03/02 04:35:38;;;;;;;4.20;2.95;;;;;;;;;;5032450;28;20474;-63
2023/03/02 04:38:04;;;;;;;4.57;3.03;;;;;;;;;;5032736;28;20108;-67
2023/03/02 04:40:30;;;;;;;4.85;2.92;;;;;;;;;;5032623;28;20033;-64
2023/03/02 04:42:56;;;;;;;4.38;2.85;;;;;;;;;;5032744;28;20036;-67
2023/03/02 04:45:22;;;;;;;4.35;3.03;;;;;;;;;;5032405;28;20028;-65
2023/03/02 04:47:48;;;;;;;5.43;3.67;;;;;;;;;;5032495;28;20492;-67
2023/03/02 04:50:14;;;;;;;5.25;3.20;;;;;;;;;;5032651;28;20025;-67
2023/03/02 04:52:41;;;;;;;5.38;3.38;;;;;;;;;;5032393;28;20538;-68
2023/03/02 04:55:07;;;;;;;4.07;2.90;;;;;;;;;;5032561;28;20398;-67
2023/03/02 04:57:33;;;;;;;4.13;2.70;;;;;;;;;;5032294;28;20497;-67
2023/03/02 04:59:59;;;;;;;4.43;2.90;;;;;;;;;;5032630;28;20425;-67
2023/03/02 05:02:25;;;;;;;4.30;2.67;;;;;;;;;;5032307;28;20120;-65
2023/03/02 05:04:51;;;;;;;4.03;2.78;;;;;;;;;;5032276;28;20017;-63
2023/03/02 05:07:17;;;;;;;4.75;2.78;;;;;;;;;;5032399;28;20487;-67
2023/03/02 05:09:43;;;;;;;5.47;2.90;;;;;;;;;;5031584;28;20109;-65
2023/03/02 05:12:09;;;;;;;3.50;2.65;;;;;;;;;;5032532;28;20417;-67
2023/03/02 05:14:35;;;;;;;3.85;2.85;;;;;;;;;;5032124;28;20142;-65
2023/03/02 05:17:01;;;;;;;5.90;3.22;;;;;;;;;;5032268;28;20162;-66
2023/03/02 05:19:27;;;;;;;3.97;2.58;;;;;;;;;;5032169;28;20518;-67
2023/03/02 05:21:53;;;;;;;3.58;2.67;;;;;;;;;;5031415;28;20033;-66
2023/03/02 05:24:19;;;;;;;4.82;2.92;;;;;;;;;;5031908;28;20073;-66
2023/03/02 05:26:45;;;;;;;5.13;2.80;;;;;;;;;;5031745;28;20026;-67
2023/03/02 05:29:11;;;;;;;4.15;3.08;;;;;;;;;;5032235;28;20021;-65
2023/03/02 05:31:39;;;;;;;4.20;3.15;;;;;;;;;;5031983;28;20200;-68
2023/03/02 05:34:06;;;;;;;4.07;3.03;;;;;;;;;;5031831;28;20033;-67
2023/03/02 05:36:32;;;;;;;3.83;3.03;;;;;;;;;;5031152;28;20429;-67
2023/03/02 05:38:58;;;;;;;4.22;3.03;;;;;;;;;;5031734;28;20104;-67
2023/03/02 05:41:24;;;;;;;4.82;3.00;;;;;;;;;;5031412;28;20103;-68
2023/03/02 05:43:50;;;;;;;3.80;2.80;;;;;;;;;;5031541;28;20462;-67
2023/03/02 05:46:17;;;;;;;3.50;2.58;;;;;;;;;;5031625;28;20022;-67
2023/03/02 05:48:43;;;;;;;4.93;3.17;;;;;;;;;;5031293;28;20025;-66
2023/03/02 05:51:09;;;;;;;4.05;2.90;;;;;;;;;;5031301;28;20025;-66
2023/03/02 05:53:35;;;;;;;4.28;2.90;;;;;;;;;;5031432;28;20437;-67
2023/03/02 05:56:01;;;;;;;4.10;2.80;;;;;;;;;;5031242;28;20028;-67
2023/03/02 05:58:27;;;;;;;5.82;3.20;;;;;;;;;;5031474;28;20032;-67
2023/03/02 06:00:53;;;;;;;4.50;3.10;;;;;;;;;;5031068;28;20045;-67
2023/03/02 06:03:19;;;;;;;5.22;3.03;;;;;;;;;;5031376;28;20080;-66
2023/03/02 06:05:49;;;;;;;3.78;2.83;;;;;;;;;;5031068;28;20455;-67
2023/03/02 06:08:16;;;;;;;4.50;2.70;;;;;;;;;;5030963;28;20538;-67
2023/03/02 06:10:42;;;;;;;5.53;2.88;;;;;;;;;;5030559;28;20060;-67
2023/03/02 06:13:08;;;;;;;4.63;2.90;;;;;;;;;;5031493;28;20021;-67
2023/03/02 06:15:34;;;;;;;4.72;2.80;;;;;;;;;;5031279;28;20021;-66
2023/03/02 06:18:00;;;;;;;4.68;3.30;;;;;;;;;;5030311;28;20087;-66
2023/03/02 06:20:26;;;;;;;4.28;2.88;;;;;;;;;;5031195;28;20086;-67
2023/03/02 06:22:52;;;;;;;3.45;2.58;;;;;;;;;;5029953;28;20037;-66
2023/03/02 06:25:20;;;;;;;4.05;2.70;;;;;;;;;;5030321;28;20030;-60
2023/03/02 06:27:46;;;;;;;4.70;2.78;;;;;;;;;;5030931;28;20036;-60
2023/03/02 06:30:16;;;;;;;5.00;2.75;;;;;;;;;;5031390;28;20022;-60
2023/03/02 06:32:42;;;;;;;3.90;2.80;;;;;;;;;;5030535;28;20088;-59
2023/03/02 06:35:09;;;;;;;4.32;2.80;;;;;;;;;;5030277;28;20401;-61
2023/03/02 06:37:35;;;;;;;4.50;2.78;;;;;;;;;;5030140;28;20021;-60
2023/03/02 06:40:07;;;;;;;4.18;2.83;;;;;;;;;;5031316;28;20382;-60
2023/03/02 06:42:33;;;;;;;6.60;3.13;;;;;;;;;;5030607;28;20039;-60
2023/03/02 06:44:59;;;;;;;4.03;2.70;;;;;;;;;;5031095;28;20108;-60
2023/03/02 06:47:25;;;;;;;4.22;2.80;;;;;;;;;;5030208;28;20029;-61
2023/03/02 06:49:51;;;;;;;3.72;2.45;;;;;;;;;;5030007;28;20034;-62
2023/03/02 06:52:17;;;;;;;4.18;2.83;;;;;;;;;;5030862;28;20078;-61
2023/03/02 06:54:43;;;;;;;4.90;2.88;;;;;;;;;;5029457;28;20036;-61
2023/03/02 06:57:09;;;;;;;5.65;2.90;;;;;;;;;;5030528;28;20569;-60
2023/03/02 06:59:35;;;;;;;5.57;3.05;;;;;;;;;;5030562;28;20181;-61
2023/03/02 07:02:01;;;;;;;4.32;2.75;;;;;;;;;;5030167;28;20382;-60
2023/03/02 07:04:30;;;;;;;5.10;3.13;;;;;;;;;;5030149;28;20041;-61
2023/03/02 07:06:56;;;;;;;5.63;3.15;;;;;;;;;;5029090;28;20029;-60
2023/03/02 07:09:22;;;;;;;5.15;2.80;;;;;;;;;;5041577;28;20033;-60
2023/03/02 07:11:48;;;;;;;5.20;2.80;;;;;;;;;;5037346;28;20026;-61
2023/03/02 07:14:15;;;;;;;5.85;2.90;;;;;;;;;;5030016;28;20152;-60
2023/03/02 07:16:41;;;;;;;4.03;2.85;;;;;;;;;;5030894;28;20028;-60
2023/03/02 07:19:10;;;;;;;8.13;3.33;;;;;;;;;;5030486;28;20030;-60
2023/03/02 07:21:36;;;;;;;7.13;3.53;;;;;;;;;;5030092;28;20131;-60
2023/03/02 07:24:02;;;;;;;5.53;3.63;;;;;;;;;;5030111;28;20053;-60
2023/03/02 07:26:28;;;;;;;7.97;3.25;;;;;;;;;;5029421;28;20034;-61
2023/03/02 07:28:58;;;;;;;6.13;3.45;;;;;;;;;;5047036;28;20422;-61
2023/03/02 07:31:24;;;;;;;4.95;3.40;;;;;;;;;;5046361;28;20116;-61
2023/03/02 07:33:50;;;;;;;5.93;3.58;;;;;;;;;;5030305;28;20517;-60
2023/03/02 07:36:16;;;;;;;5.65;3.55;;;;;;;;;;5030786;28;20024;-60
2023/03/02 07:38:42;;;;;;;5.00;3.17;;;;;;;;;;5030053;28;20065;-60
2023/03/02 07:41:09;;;;;;;7.53;3.78;;;;;;;;;;5029838;28;20486;-60
2023/03/02 07:43:35;;;;;;;5.50;3.10;;;;;;;;;;5029711;28;20029;-60
2023/03/02 07:46:02;;;;;;;6.68;3.60;;;;;;;;;;5030214;28;20076;-61
2023/03/02 07:48:28;;;;;;;8.55;3.75;;;;;;;;;;5030422;28;20029;-60
2023/03/02 07:50:57;;;;;;;5.32;3.63;;;;;;;;;;5033406;28;20030;-60
2023/03/02 07:53:23;;;;;;;7.07;3.33;;;;;;;;;;5034043;28;20021;-61
2023/03/02 07:55:49;;;;;;;9.93;3.67;;;;;;;;;;5033683;28;20029;-60
2023/03/02 07:58:15;;;;;;;9.32;3.88;;;;;;;;;;5033648;28;20036;-60
2023/03/02 08:00:41;;;;;;;6.85;3.20;;;;;;;;;;5033610;28;20032;-61
2023/03/02 08:03:07;;;;;;;7.65;3.25;;;;;;;;;;5033786;28;20033;-60
2023/03/02 08:05:33;;;;;;;4.95;3.10;;;;;;;;;;5033537;28;20048;-60
2023/03/02 08:07:59;;;;;;;9.93;3.28;;;;;;;;;;5033287;28;20037;-60
2023/03/02 08:10:25;;;;;;;6.30;3.35;;;;;;;;;;5033477;28;20034;-60
2023/03/02 08:12:51;;;;;;;5.85;2.92;;;;;;;;;;5033415;28;20492;-60
2023/03/02 08:15:17;;;;;;;6.05;3.20;;;;;;;;;;5033929;28;20029;-61
2023/03/02 08:17:43;;;;;;;6.97;2.88;;;;;;;;;;5033247;28;20017;-61
2023/03/02 08:20:10;;;;;;;6.13;3.22;;;;;;;;;;5033530;28;20504;-60
2023/03/02 08:22:36;;;;;;;5.45;3.45;;;;;;;;;;5032232;28;20525;-60
2023/03/02 08:25:02;;;;;;;9.23;3.60;;;;;;;;;;5032873;28;20057;-61
2023/03/02 08:27:28;;;;;;;4.68;3.05;;;;;;;;;;5033252;28;20104;-61
2023/03/02 08:29:54;;;;;;;4.95;3.15;;;;;;;;;;5033359;28;20018;-60
2023/03/02 08:32:20;;;;;;;7.43;3.38;;;;;;;;;;5033226;28;20036;-60
2023/03/02 08:34:50;;;;;;;5.22;3.40;;;;;;;;;;5032914;28;20094;-61
2023/03/02 08:37:16;;;;;;;7.03;3.08;;;;;;;;;;5033528;28;20036;-60
2023/03/02 08:39:42;;;;;;;4.32;3.13;;;;;;;;;;5033018;28;20072;-60
2023/03/02 08:42:08;;;;;;;5.15;3.10;;;;;;;;;;5032952;28;20038;-60
2023/03/02 08:44:34;;;;;;;7.10;3.22;;;;;;;;;;5031438;28;20017;-61
2023/03/02 08:47:00;;;;;;;4.65;3.15;;;;;;;;;;5032632;28;20029;-60
2023/03/02 08:49:26;;;;;;;6.15;3.58;;;;;;;;;;5032939;28;20028;-60
2023/03/02 08:51:55;;;;;;;6.63;3.45;;;;;;;;;;5032326;28;20144;-61
2023/03/02 08:54:21;;;;;;;4.95;3.00;;;;;;;;;;5032849;28;20040;-60
2023/03/02 08:56:47;;;;;;;3.95;2.83;;;;;;;;;;5015090;28;20116;-61
2023/03/02 08:59:13;;;;;;;4.68;3.35;;;;;;;;;;5032817;28;20035;-61
2023/03/02 09:01:40;;;;;;;6.07;3.60;;;;;;;;;;5031913;28;20037;-61
2023/03/02 09:04:07;;;;;;;5.25;2.80;;;;;;;;;;5032412;28;20075;-61
2023/03/02 09:06:34;;;;;;;5.95;2.97;;;;;;;;;;5032367;28;20104;-61
2023/03/02 09:09:00;;;;;;;5.13;2.83;;;;;;;;;;5032451;28;20033;-61
2023/03/02 09:11:26;;;;;;;5.63;2.78;;;;;;;;;;5032464;28;20490;-60
2023/03/02 09:13:53;;;;;;;6.07;3.10;;;;;;;;;;5032280;28;20033;-60
2023/03/02 09:16:19;;;;;;;4.85;2.97;;;;;;;;;;5032514;28;20087;-61
2023/03/02 09:18:46;;;;;;;6.75;3.38;;;;;;;;;;5032156;28;20493;-60
2023/03/02 09:21:12;;;;;;;5.00;3.00;;;;;;;;;;5031807;28;20103;-60
2023/03/02 09:23:38;;;;;;;5.30;3.05;;;;;;;;;;5032079;28;20478;-61
2023/03/02 09:26:05;;;;;;;5.63;3.70;;;;;;;;;;5032295;28;20104;-61
2023/03/02 09:28:31;;;;;;;5.70;3.17;;;;;;;;;;5032034;28;20029;-62
2023/03/02 09:30:58;;;;;;;4.68;3.22;;;;;;;;;;5032113;28;20626;-61
2023/03/02 09:33:24;;;;;;;5.82;3.33;;;;;;;;;;5032089;28;20035;-61
2023/03/02 09:35:50;;;;;;;5.35;3.25;;;;;;;;;;5031548;28;20044;-61
2023/03/02 09:38:17;;;;;;;5.50;3.35;;;;;;;;;;5031960;28;20033;-61
2023/03/02 09:40:46;;;;;;;5.85;3.35;;;;;;;;;;5031090;28;20025;-60
2023/03/02 09:43:15;;;;;;;6.63;3.17;;;;;;;;;;5029185;28;20076;-61
2023/03/02 09:46:00;;;;;;;4.88;3.03;;;;;;;;;;5029399;28;20029;-61
2023/03/02 09:48:32;;;;;;;6.90;3.40;;;;;;;;;;5031038;28;20029;-60
2023/03/02 09:51:19;;;;;;;5.68;3.17;;;;;;;;;;5030897;28;20025;-61
2023/03/02 09:53:54;;;;;;;5.13;3.22;;;;;;;;;;5031336;28;20033;-61
2023/03/02 09:56:20;;;;;;;5.78;3.63;;;;;;;;;;5032118;28;20029;-60
2023/03/02 09:58:49;;;;;;;4.97;3.38;;;;;;;;;;5031436;28;20033;-61
2023/03/02 10:01:16;;;;;;;5.70;3.22;;;;;;;;;;5031506;28;20441;-61
2023/03/02 10:03:55;;;;;;;4.15;3.20;;;;;;;;;;5031324;28;20083;-61
2023/03/02 10:06:21;;;;;;;4.35;3.10;;;;;;;;;;5031426;28;20441;-61
2023/03/02 10:08:49;;;;;;;6.97;3.88;;;;;;;;;;5031058;28;20513;-62
2023/03/02 10:11:15;;;;;;;5.80;3.33;;;;;;;;;;5031250;28;20017;-61
2023/03/02 10:13:59;;;;;;;7.60;3.55;;;;;;;;;;5030355;28;20032;-63
2023/03/02 10:16:30;;;;;;;7.50;4.10;;;;;;;;;;5031404;28;20044;-62
2023/03/02 10:19:15;;;;;;;8.25;3.38;;;;;;;;;;5030929;28;20037;-62
2023/03/02 10:21:46;;;;;;;5.63;3.55;;;;;;;;;;5031058;28;20025;-62
2023/03/02 10:24:12;;;;;;;7.75;3.63;;;;;;;;;;5030596;28;20509;-61
2023/03/02 10:26:39;;;;;;;6.10;3.70;;;;;;;;;;5030800;28;20591;-62
2023/03/02 10:29:24;;;;;;;8.93;4.25;;;;;;;;;;5029900;28;20029;-63
2023/03/02 10:31:54;;;;;;;8.23;4.00;;;;;;;;;;5031232;28;20096;-61
2023/03/02 10:34:25;;;;;;;6.68;3.75;;;;;;;;;;5034605;28;20047;-61
2023/03/02 10:36:51;;;;;;;12.00;4.20;;;;;;;;;;5030208;28;20029;-62
2023/03/02 10:39:18;;;;;;;9.32;4.07;;;;;;;;;;5029972;28;20036;-62
2023/03/02 10:41:48;;;;;;;9.13;4.18;;;;;;;;;;5030414;28;20052;-61
2023/03/02 10:44:40;;;;;;;9.55;4.25;;;;;;;;;;5030503;28;20433;-62
2023/03/02 10:47:07;;;;;;;13.82;4.43;;;;;;;;;;5030627;28;20052;-62
2023/03/02 10:49:35;;;;;;;10.05;4.10;;;;;;;;;;5030890;28;20028;-62
2023/03/02 10:52:02;;;;;;;5.15;3.72;;;;;;;;;;5031033;28;20032;-61
2023/03/02 10:54:29;;;;;;;7.03;4.30;;;;;;;;;;5030800;28;20108;-62
2023/03/02 10:56:57;;;;;;;7.95;3.88;;;;;;;;;;5030953;28;20100;-60
2023/03/02 10:59:26;;;;;;;6.25;4.10;;;;;;;;;;5030688;28;20474;-62
2023/03/02 11:02:02;;;;;;;4.95;3.53;;;;;;;;;;5030874;28;20057;-60
2023/03/02 11:04:29;;;;;;;6.03;4.10;;;;;;;;;;5030728;28;20053;-61
2023/03/02 11:06:55;;;;;;;7.00;4.00;;;;;;;;;;5031327;28;20029;-63
2023/03/02 11:09:21;;;;;;;7.57;3.97;;;;;;;;;;5029269;28;20052;-60
2023/03/02 11:11:54;;;;;;;7.18;3.97;;;;;;;;;;5028245;28;20228;-65
2023/03/02 11:14:22;;;;;;;7.07;3.95;;;;;;;;;;5028912;28;20049;-64
2023/03/02 11:16:50;;;;;;;10.63;4.00;;;;;;;;;;5028459;28;20038;-62
2023/03/02 11:19:21;;;;;;;7.70;3.80;;;;;;;;;;5029177;28;20036;-63
2023/03/02 11:21:50;;;;;;;6.35;3.42;;;;;;;;;;5029009;28;20044;-60
2023/03/02 11:24:21;;;;;;;4.68;3.53;;;;;;;;;;5032028;28;20060;-60
2023/03/02 11:26:52;;;;;;;5.68;3.35;;;;;;;;;;5033881;28;20021;-61
2023/03/02 11:29:29;;;;;;;5.55;3.80;;;;;;;;;;5034523;28;20459;-60
2023/03/02 11:32:08;;;;;;;5.95;3.53;;;;;;;;;;5033231;28;20032;-61
2023/03/02 11:34:45;;;;;;;5.40;3.38;;;;;;;;;;5033913;28;20036;-60
2023/03/02 11:37:36;;;;;;;4.90;3.40;;;;;;;;;;5033585;28;20040;-60
2023/03/02 11:40:04;;;;;;;5.47;3.53;;;;;;;;;;5033860;28;20029;-62
2023/03/02 11:42:32;;;;;;;5.93;3.60;;;;;;;;;;5033326;28;20039;-60
2023/03/02 11:45:03;;;;;;;5.53;3.60;;;;;;;;;;5033706;28;20025;-60
2023/03/02 11:47:31;;;;;;;5.68;3.65;;;;;;;;;;5033297;28;20052;-60
2023/03/02 11:50:00;;;;;;;4.72;3.10;;;;;;;;;;5033124;28;20026;-60
2023/03/02 11:52:28;;;;;;;6.25;3.53;;;;;;;;;;5034076;28;20036;-62
2023/03/02 11:54:59;;;;;;;5.88;3.13;;;;;;;;;;5033799;28;20026;-60
2023/03/02 11:57:30;;;;;;;5.68;3.58;;;;;;;;;;5032663;28;20115;-62
2023/03/02 11:59:57;;;;;;;6.25;3.42;;;;;;;;;;5033700;28;20021;-61
2023/03/02 12:02:24;;;;;;;6.13;3.53;;;;;;;;;;5032487;28;20037;-63
2023/03/02 12:05:00;;;;;;;5.97;3.83;;;;;;;;;;5032534;28;20018;-60
2023/03/02 12:07:26;;;;;;;5.28;3.15;;;;;;;;;;5033554;28;20058;-60
2023/03/02 12:09:57;;;;;;;5.78;3.75;;;;;;;;;;5032840;28;20033;-60
2023/03/02 12:12:26;;;;;;;5.47;3.47;;;;;;;;;;5034535;28;20032;-60
2023/03/02 12:14:52;;;;;;;4.75;3.65;;;;;;;;;;5053552;28;20214;-63
2023/03/02 12:17:18;;;;;;;8.45;4.38;;;;;;;;;;5043451;28;20512;-63
2023/03/02 12:19:44;;;;;;;6.55;3.83;;;;;;;;;;5032922;28;20025;-62
2023/03/02 12:22:13;;;;;;;9.27;3.85;;;;;;;;;;5033264;28;20033;-59
2023/03/02 12:24:40;;;;;;;5.85;4.25;;;;;;;;;;5032964;28;20061;-62
2023/03/02 12:27:24;;;;;;;7.32;4.45;;;;;;;;;;5032938;28;20079;-63
2023/03/02 12:30:10;;;;;;;7.50;4.38;;;;;;;;;;5037939;28;20060;-61
2023/03/02 12:32:36;;;;;;;8.25;5.03;;;;;;;;;;5040085;28;20037;-60
2023/03/02 12:35:08;;;;;;;6.53;4.15;;;;;;;;;;5040602;28;20487;-63
2023/03/02 12:38:07;;;;;;;7.20;4.55;;;;;;;;;;5039653;28;20026;-62
2023/03/02 12:40:43;;;;;;;8.63;4.53;;;;;;;;;;5014223;28;20430;-62
2023/03/02 12:43:15;;;;;;;8.75;4.47;;;;;;;;;;5040865;28;20048;-62
2023/03/02 12:45:50;;;;;;;6.22;4.40;;;;;;;;;;5041514;28;20140;-63
2023/03/02 12:48:19;;;;;;;8.70;5.00;;;;;;;;;;5040390;28;20036;-60
2023/03/02 12:50:47;;;;;;;7.97;4.78;;;;;;;;;;5040872;28;20179;-62
2023/03/02 12:53:17;;;;;;;7.55;4.65;;;;;;;;;;5034647;28;20163;-61
2023/03/02 12:55:43;;;;;;;6.10;4.10;;;;;;;;;;5032631;28;20439;-60
2023/03/02 12:58:16;;;;;;;6.90;4.75;;;;;;;;;;5033707;28;20096;-60
2023/03/02 13:00:48;;;;;;;7.50;4.38;;;;;;;;;;5031576;28;20023;-61
2023/03/02 13:03:14;;;;;;;7.55;4.60;;;;;;;;;;5032007;28;20121;-60
2023/03/02 13:05:41;;;;;;;6.85;4.28;;;;;;;;;;5031807;28;20021;-61
2023/03/02 13:08:11;;;;;;;8.05;4.13;;;;;;;;;;5032552;28;20497;-62
2023/03/02 13:10:39;;;;;;;6.50;4.85;;;;;;;;;;5039700;28;20030;-60
2023/03/02 13:13:25;;;;;;;6.55;4.65;;;;;;;;;;5039643;28;20029;-61
2023/03/02 13:15:51;;;;;;;6.68;4.78;;;;;;;;;;5040907;28;20022;-61
2023/03/02 13:18:18;;;;;;;6.18;4.57;;;;;;;;;;5041034;28;20052;-60
2023/03/02 13:20:44;;;;;;;7.03;4.85;;;;;;;;;;5038962;28;20483;-60
2023/03/02 13:23:12;;;;;;;7.18;4.53;;;;;;;;;;5040448;28;20034;-60
2023/03/02 13:25:46;;;;;;;8.52;5.00;;;;;;;;;;5031109;28;20482;-61
2023/03/02 13:28:29;;;;;;;7.22;4.45;;;;;;;;;;5031664;28;20029;-61
2023/03/02 13:30:57;;;;;;;8.23;5.15;;;;;;;;;;5032215;28;20017;-61
2023/03/02 13:33:23;;;;;;;7.07;4.90;;;;;;;;;;5031783;28;20032;-60
2023/03/02 13:35:49;;;;;;;8.48;5.22;;;;;;;;;;5031569;28;20029;-60
2023/03/02 13:38:17;;;;;;;7.70;5.10;;;;;;;;;;5031810;28;20025;-61
2023/03/02 13:40:46;;;;;;;6.78;4.80;;;;;;;;;;5031138;28;20037;-60
2023/03/02 13:43:24;;;;;;;9.82;5.05;;;;;;;;;;5031520;28;20442;-60
2023/03/02 13:45:57;;;;;;;9.13;4.80;;;;;;;;;;5030738;28;20032;-61
2023/03/02 13:48:23;;;;;;;7.10;5.00;;;;;;;;;;5032201;28;20056;-61
2023/03/02 13:50:54;;;;;;;6.65;4.75;;;;;;;;;;5031174;28;20025;-61
2023/03/02 13:53:20;;;;;;;9.38;5.82;;;;;;;;;;5031052;28;20445;-61
2023/03/02 13:55:46;;;;;;;6.82;5.55;;;;;;;;;;5040066;28;20025;-61
2023/03/02 13:58:15;;;;;;;7.13;5.03;;;;;;;;;;5045641;28;20564;-59
2023/03/02 14:00:41;;;;;;;8.60;5.68;;;;;;;;;;5046892;28;20086;-60
2023/03/02 14:03:21;;;;;;;6.15;4.90;;;;;;;;;;5047781;28;20037;-59
2023/03/02 14:05:47;;;;;;;7.57;4.90;;;;;;;;;;5031403;28;20091;-59
2023/03/02 14:08:13;;;;;;;6.93;4.85;;;;;;;;;;5030832;28;20479;-60
2023/03/02 14:10:40;;;;;;;6.70;5.00;;;;;;;;;;5030190;28;20034;-59
2023/03/02 14:13:07;;;;;;;7.25;5.35;;;;;;;;;;5030474;28;20486;-59
2023/03/02 14:15:33;;;;;;;6.65;5.35;;;;;;;;;;5030032;28;20049;-59
2023/03/02 14:17:59;;;;;;;6.43;5.05;;;;;;;;;;5030955;28;20026;-59
2023/03/02 14:20:25;;;;;;;6.88;4.97;;;;;;;;;;5031831;28;20029;-59
2023/03/02 14:22:51;;;;;;;8.27;5.32;;;;;;;;;;5030357;28;20060;-59
2023/03/02 14:25:18;;;;;;;7.65;5.05;;;;;;;;;;5030429;28;20033;-59
2023/03/02 14:27:46;;;;;;;7.45;5.10;;;;;;;;;;5030916;28;20478;-60
2023/03/02 14:30:17;;;;;;;8.52;5.20;;;;;;;;;;5030961;28;20490;-59
2023/03/02 14:32:43;;;;;;;7.75;5.03;;;;;;;;;;5031036;28;20025;-59
2023/03/02 14:35:10;;;;;;;7.63;4.60;;;;;;;;;;5031213;28;20013;-59
2023/03/02 14:37:37;;;;;;;7.85;5.35;;;;;;;;;;5030347;28;20053;-61
2023/03/02 14:40:06;;;;;;;7.80;4.80;;;;;;;;;;5030891;28;20025;-60
2023/03/02 14:42:32;;;;;;;7.95;5.63;;;;;;;;;;5030723;28;20033;-60
2023/03/02 14:44:58;;;;;;;8.93;5.65;;;;;;;;;;5030235;28;20025;-60
2023/03/02 14:47:24;;;;;;;7.63;5.30;;;;;;;;;;5029989;28;20029;-60